Time;durP1;ratioP1;P1;durP2;ratioP2;P2;SDS_P1;SDS_P2;PMS_P1;PMS_P2;Temp;Humidity;BMP_temperature;BMP_pressure;BME280_temperature;BME280_humidity;BME280_pressure;Samples;Min_cycle;Max_cycle;Signal;HPM_P1;HPM_P2
2023/12/10 00:00:45;;;;;;;0.73;0.43;;;;;;;;;;5038856;28;20056;-85
2023/12/10 00:03:11;;;;;;;0.60;0.50;;;;;;;;;;5041760;28;20037;-86
2023/12/10 00:05:36;;;;;;;0.35;0.30;;;;;;;;;;5039051;28;20040;-86
2023/12/10 00:08:02;;;;;;;2.30;0.90;;;;;;;;;;5039579;28;20448;-86
2023/12/10 00:10:27;;;;;;;1.13;0.65;;;;;;;;;;5035892;28;20036;-85
2023/12/10 00:12:53;;;;;;;0.98;0.30;;;;;;;;;;5040776;28;20502;-85
2023/12/10 00:15:18;;;;;;;1.05;0.30;;;;;;;;;;5039967;28;20124;-86
2023/12/10 00:17:44;;;;;;;0.63;0.47;;;;;;;;;;5042545;28;20065;-86
2023/12/10 00:20:09;;;;;;;1.13;0.63;;;;;;;;;;5045766;28;20099;-87
2023/12/10 00:22:35;;;;;;;0.65;0.35;;;;;;;;;;5046438;28;20045;-85
2023/12/10 00:25:04;;;;;;;0.22;0.10;;;;;;;;;;5028773;28;20540;-85
2023/12/10 00:27:29;;;;;;;1.02;0.40;;;;;;;;;;5041385;28;20026;-86
2023/12/10 00:29:55;;;;;;;1.20;0.40;;;;;;;;;;5035207;28;20111;-87
2023/12/10 00:32:20;;;;;;;0.85;0.50;;;;;;;;;;5033233;28;20048;-85
2023/12/10 00:34:46;;;;;;;0.65;0.50;;;;;;;;;;5043031;28;20047;-86
2023/12/10 00:37:11;;;;;;;0.35;0.22;;;;;;;;;;5042764;28;20032;-86
2023/12/10 00:39:37;;;;;;;0.40;0.38;;;;;;;;;;5041521;28;20487;-86
2023/12/10 00:42:03;;;;;;;0.38;0.30;;;;;;;;;;5043448;28;20035;-85
2023/12/10 00:44:29;;;;;;;0.50;0.30;;;;;;;;;;5043022;28;20034;-86
2023/12/10 00:46:54;;;;;;;0.50;0.40;;;;;;;;;;5045799;28;20515;-85
2023/12/10 00:49:20;;;;;;;0.77;0.63;;;;;;;;;;5038137;28;20037;-85
2023/12/10 00:51:45;;;;;;;0.95;0.63;;;;;;;;;;5030975;28;20037;-86
2023/12/10 00:54:11;;;;;;;0.30;0.30;;;;;;;;;;5037346;28;20017;-85
2023/12/10 00:56:36;;;;;;;0.60;0.30;;;;;;;;;;5041737;28;20044;-85
2023/12/10 00:59:02;;;;;;;0.30;0.30;;;;;;;;;;5044289;28;20040;-84
2023/12/10 01:01:27;;;;;;;0.20;0.20;;;;;;;;;;5037464;28;20029;-86
2023/12/10 01:03:53;;;;;;;0.75;0.30;;;;;;;;;;5039940;28;20033;-85
2023/12/10 01:06:19;;;;;;;0.85;0.35;;;;;;;;;;5044971;28;20461;-85
2023/12/10 01:08:45;;;;;;;0.45;0.28;;;;;;;;;;5040795;28;20042;-85
2023/12/10 01:11:10;;;;;;;0.50;0.20;;;;;;;;;;5039950;28;20052;-86
2023/12/10 01:13:36;;;;;;;2.53;0.35;;;;;;;;;;5037809;28;20033;-85
2023/12/10 01:16:04;;;;;;;0.50;0.20;;;;;;;;;;5039179;28;20160;-84
2023/12/10 01:18:32;;;;;;;0.80;0.30;;;;;;;;;;5044633;28;20071;-85
2023/12/10 01:20:58;;;;;;;1.45;0.20;;;;;;;;;;5043505;28;20037;-85
2023/12/10 01:23:23;;;;;;;0.45;0.28;;;;;;;;;;5039727;28;20037;-85
2023/12/10 01:25:49;;;;;;;0.68;0.20;;;;;;;;;;5043117;28;20063;-85
2023/12/10 01:28:14;;;;;;;1.25;0.40;;;;;;;;;;5044257;28;20061;-85
2023/12/10 01:30:40;;;;;;;0.47;0.38;;;;;;;;;;5038315;28;20033;-85
2023/12/10 01:33:05;;;;;;;0.95;0.40;;;;;;;;;;5035001;28;20060;-85
2023/12/10 01:35:31;;;;;;;1.02;0.30;;;;;;;;;;5022656;28;20033;-85
2023/12/10 01:37:57;;;;;;;0.93;0.28;;;;;;;;;;5038194;28;20040;-86
2023/12/10 01:40:22;;;;;;;0.57;0.55;;;;;;;;;;5039283;28;20430;-85
2023/12/10 01:42:48;;;;;;;0.55;0.30;;;;;;;;;;5041040;28;20376;-84
2023/12/10 01:45:14;;;;;;;0.65;0.30;;;;;;;;;;5040690;28;20083;-85
2023/12/10 01:47:43;;;;;;;0.75;0.30;;;;;;;;;;5042531;28;20033;-85
2023/12/10 01:50:12;;;;;;;1.80;0.40;;;;;;;;;;5041830;28;20578;-86
2023/12/10 01:52:44;;;;;;;1.38;0.55;;;;;;;;;;5034558;28;20571;-85
2023/12/10 01:55:10;;;;;;;0.90;0.30;;;;;;;;;;5036423;28;20043;-85
2023/12/10 01:57:36;;;;;;;1.27;0.30;;;;;;;;;;5040595;28;20113;-85
2023/12/10 02:00:06;;;;;;;0.63;0.30;;;;;;;;;;5039619;28;20037;-84
2023/12/10 02:02:38;;;;;;;1.60;0.40;;;;;;;;;;5040721;28;20045;-84
2023/12/10 02:05:06;;;;;;;2.30;0.32;;;;;;;;;;5039596;28;20041;-84
2023/12/10 02:07:32;;;;;;;1.05;0.25;;;;;;;;;;5041665;28;20039;-82
2023/12/10 02:09:58;;;;;;;3.83;0.25;;;;;;;;;;5044045;28;20041;-85
2023/12/10 02:12:23;;;;;;;1.10;0.30;;;;;;;;;;5037230;28;20926;-85
2023/12/10 02:14:49;;;;;;;0.80;0.25;;;;;;;;;;5039765;28;20045;-85
2023/12/10 02:17:15;;;;;;;1.38;0.40;;;;;;;;;;5043067;28;20079;-84
2023/12/10 02:19:40;;;;;;;1.05;0.30;;;;;;;;;;5039735;28;20029;-86
2023/12/10 02:22:09;;;;;;;0.45;0.30;;;;;;;;;;5044026;28;20178;-85
2023/12/10 02:25:02;;;;;;;1.67;0.40;;;;;;;;;;5025276;28;20423;-85
2023/12/10 02:27:29;;;;;;;1.75;0.43;;;;;;;;;;5043894;28;20048;-86
2023/12/10 02:29:55;;;;;;;0.68;0.17;;;;;;;;;;5038393;28;20026;-86
2023/12/10 02:32:21;;;;;;;2.80;0.20;;;;;;;;;;5037589;28;20034;-85
2023/12/10 02:34:46;;;;;;;1.75;0.30;;;;;;;;;;5036882;28;20034;-86
2023/12/10 02:37:12;;;;;;;0.93;0.20;;;;;;;;;;5039292;28;20033;-85
2023/12/10 02:39:37;;;;;;;0.75;0.20;;;;;;;;;;5039414;28;20033;-85
2023/12/10 02:42:03;;;;;;;0.30;0.10;;;;;;;;;;5045153;28;20458;-84
2023/12/10 02:44:29;;;;;;;0.20;0.00;;;;;;;;;;5037059;28;20457;-85
2023/12/10 02:46:54;;;;;;;0.15;0.00;;;;;;;;;;5034910;28;20033;-85
2023/12/10 02:49:20;;;;;;;0.03;0.03;;;;;;;;;;5034360;28;20041;-84
2023/12/10 02:51:45;;;;;;;1.85;0.10;;;;;;;;;;5038546;28;20060;-84
2023/12/10 02:54:11;;;;;;;0.25;0.13;;;;;;;;;;5035626;28;20032;-85
2023/12/10 02:56:36;;;;;;;1.23;0.17;;;;;;;;;;5032031;28;20065;-86
2023/12/10 02:59:02;;;;;;;0.73;0.10;;;;;;;;;;5043385;28;20029;-85
2023/12/10 03:01:27;;;;;;;2.20;0.43;;;;;;;;;;5043745;28;20041;-86
2023/12/10 03:03:53;;;;;;;2.38;0.40;;;;;;;;;;5041763;28;20040;-86
2023/12/10 03:06:19;;;;;;;0.60;0.30;;;;;;;;;;5040513;28;20527;-85
2023/12/10 03:08:44;;;;;;;2.70;0.77;;;;;;;;;;5041982;28;20445;-86
2023/12/10 03:11:10;;;;;;;1.65;0.47;;;;;;;;;;5044164;28;20039;-85
2023/12/10 03:13:35;;;;;;;2.55;0.52;;;;;;;;;;5041706;28;20037;-85
2023/12/10 03:16:01;;;;;;;3.80;0.80;;;;;;;;;;5037497;28;20045;-84
2023/12/10 03:18:27;;;;;;;4.97;0.93;;;;;;;;;;5037229;28;20037;-85
2023/12/10 03:20:53;;;;;;;5.88;0.80;;;;;;;;;;5038153;28;20095;-84
2023/12/10 03:23:19;;;;;;;4.45;0.80;;;;;;;;;;5040450;28;20045;-86
2023/12/10 03:25:44;;;;;;;8.70;1.05;;;;;;;;;;5041336;28;20033;-85
2023/12/10 03:28:10;;;;;;;2.95;0.70;;;;;;;;;;5038871;28;20040;-86
2023/12/10 03:30:35;;;;;;;4.32;0.70;;;;;;;;;;5036157;28;20037;-84
2023/12/10 03:33:01;;;;;;;4.68;0.95;;;;;;;;;;5044729;28;20036;-84
2023/12/10 03:35:26;;;;;;;4.28;0.77;;;;;;;;;;5037721;28;20043;-85
2023/12/10 03:37:52;;;;;;;5.93;0.95;;;;;;;;;;5033406;28;20048;-86
2023/12/10 03:40:18;;;;;;;6.35;0.95;;;;;;;;;;5035925;28;20034;-85
2023/12/10 03:42:43;;;;;;;3.17;0.65;;;;;;;;;;5036877;28;20061;-86
2023/12/10 03:45:09;;;;;;;6.07;0.98;;;;;;;;;;5040013;28;20040;-84
2023/12/10 03:47:35;;;;;;;4.97;0.90;;;;;;;;;;5040885;28;20038;-84
2023/12/10 03:50:01;;;;;;;5.57;1.13;;;;;;;;;;5042662;28;20348;-83
2023/12/10 03:52:27;;;;;;;9.45;0.95;;;;;;;;;;5039334;28;20506;-85
2023/12/10 03:54:52;;;;;;;3.60;1.00;;;;;;;;;;5039263;28;20033;-86
2023/12/10 03:57:18;;;;;;;4.70;0.70;;;;;;;;;;5034844;28;20040;-87
2023/12/10 03:59:44;;;;;;;7.50;1.02;;;;;;;;;;5022566;28;20045;-84
2023/12/10 04:02:09;;;;;;;3.47;0.68;;;;;;;;;;5040168;28;20112;-85
2023/12/10 04:04:35;;;;;;;4.00;0.60;;;;;;;;;;5040934;28;20756;-85
2023/12/10 04:07:02;;;;;;;7.40;0.80;;;;;;;;;;5044026;28;20061;-84
2023/12/10 04:09:28;;;;;;;6.55;0.80;;;;;;;;;;5037788;28;20044;-85
2023/12/10 04:11:57;;;;;;;2.78;0.60;;;;;;;;;;5039518;28;20068;-86
2023/12/10 04:14:22;;;;;;;3.67;0.73;;;;;;;;;;5042714;28;20033;-87
2023/12/10 04:16:48;;;;;;;4.28;0.63;;;;;;;;;;5035714;28;20041;-86
2023/12/10 04:19:13;;;;;;;7.20;0.88;;;;;;;;;;5041799;28;20132;-85
2023/12/10 04:21:39;;;;;;;4.93;0.90;;;;;;;;;;5038915;28;20663;-85
2023/12/10 04:24:05;;;;;;;3.63;0.57;;;;;;;;;;5039294;28;20030;-85
2023/12/10 04:26:31;;;;;;;4.18;1.00;;;;;;;;;;5022834;28;20048;-86
2023/12/10 04:28:56;;;;;;;3.85;0.95;;;;;;;;;;5041028;28;20041;-85
2023/12/10 04:31:22;;;;;;;4.45;0.90;;;;;;;;;;5040624;28;20036;-86
2023/12/10 04:33:47;;;;;;;3.03;0.60;;;;;;;;;;5040309;28;20038;-87
2023/12/10 04:36:13;;;;;;;3.25;0.82;;;;;;;;;;5040319;28;20029;-85
2023/12/10 04:38:39;;;;;;;4.07;0.93;;;;;;;;;;5034230;28;20064;-86
2023/12/10 04:41:04;;;;;;;2.90;0.68;;;;;;;;;;5035129;28;20037;-87
2023/12/10 04:43:30;;;;;;;2.65;0.75;;;;;;;;;;5038532;28;20046;-84
2023/12/10 04:45:55;;;;;;;6.00;0.80;;;;;;;;;;5040162;28;20446;-85
2023/12/10 04:48:21;;;;;;;8.77;1.17;;;;;;;;;;5045244;28;20037;-86
2023/12/10 04:50:50;;;;;;;4.05;0.70;;;;;;;;;;5040949;28;20038;-86
2023/12/10 04:53:16;;;;;;;3.42;0.70;;;;;;;;;;5040056;28;20033;-87
2023/12/10 04:55:42;;;;;;;6.13;1.05;;;;;;;;;;5043230;28;20040;-85
2023/12/10 04:58:08;;;;;;;7.75;1.00;;;;;;;;;;5040168;28;20033;-86
2023/12/10 05:00:33;;;;;;;5.25;0.88;;;;;;;;;;5030858;28;20037;-86
2023/12/10 05:02:59;;;;;;;5.38;0.80;;;;;;;;;;5042443;28;20033;-85
2023/12/10 05:05:24;;;;;;;4.65;0.70;;;;;;;;;;5036949;28;20438;-86
2023/12/10 05:07:50;;;;;;;7.93;1.42;;;;;;;;;;5040587;28;20034;-86
2023/12/10 05:10:15;;;;;;;5.05;0.90;;;;;;;;;;5038467;28;20033;-86
2023/12/10 05:12:41;;;;;;;7.97;1.50;;;;;;;;;;5039741;28;20013;-84
2023/12/10 05:15:07;;;;;;;6.13;0.90;;;;;;;;;;5038096;28;20082;-84
2023/12/10 05:17:33;;;;;;;7.93;1.20;;;;;;;;;;5029110;28;20032;-85
2023/12/10 05:19:58;;;;;;;4.55;0.90;;;;;;;;;;5037470;28;20167;-85
2023/12/10 05:22:24;;;;;;;4.50;0.93;;;;;;;;;;5032047;28;20111;-85
2023/12/10 05:24:49;;;;;;;7.40;1.52;;;;;;;;;;5035463;28;20034;-85
2023/12/10 05:27:15;;;;;;;6.43;1.00;;;;;;;;;;5040952;28;20102;-86
2023/12/10 05:29:40;;;;;;;6.82;1.08;;;;;;;;;;5041266;28;20029;-85
2023/12/10 05:32:06;;;;;;;10.85;1.17;;;;;;;;;;5040184;28;20029;-87
2023/12/10 05:34:32;;;;;;;7.30;1.30;;;;;;;;;;5036367;28;20121;-85
2023/12/10 05:36:57;;;;;;;7.30;1.27;;;;;;;;;;5026273;28;20021;-86
2023/12/10 05:39:23;;;;;;;6.97;1.45;;;;;;;;;;5040921;28;20025;-85
2023/12/10 05:41:49;;;;;;;6.53;1.20;;;;;;;;;;5029724;28;20036;-86
2023/12/10 05:44:15;;;;;;;7.80;1.30;;;;;;;;;;5039675;28;20090;-86
2023/12/10 05:46:40;;;;;;;6.18;1.42;;;;;;;;;;5034634;28;20033;-87
2023/12/10 05:49:06;;;;;;;6.07;1.35;;;;;;;;;;5041117;28;20029;-83
2023/12/10 05:51:31;;;;;;;11.15;1.35;;;;;;;;;;5041556;28;20060;-84
2023/12/10 05:53:57;;;;;;;5.53;1.15;;;;;;;;;;5040079;28;20036;-84
2023/12/10 05:56:22;;;;;;;10.07;1.80;;;;;;;;;;5042882;28;20029;-84
2023/12/10 05:58:48;;;;;;;6.13;1.15;;;;;;;;;;5046955;28;20036;-85
2023/12/10 06:01:14;;;;;;;5.88;1.10;;;;;;;;;;5036148;28;20033;-85
2023/12/10 06:03:39;;;;;;;4.38;1.08;;;;;;;;;;5041216;28;20551;-86
2023/12/10 06:06:05;;;;;;;4.13;1.10;;;;;;;;;;5044966;28;20032;-85
2023/12/10 06:08:31;;;;;;;6.25;1.10;;;;;;;;;;5041005;28;20033;-84
2023/12/10 06:10:56;;;;;;;9.25;1.23;;;;;;;;;;5048000;28;20475;-86
2023/12/10 06:13:22;;;;;;;5.97;1.13;;;;;;;;;;5040216;28;20045;-86
2023/12/10 06:15:47;;;;;;;5.40;1.10;;;;;;;;;;5045288;28;20060;-86
2023/12/10 06:18:13;;;;;;;6.88;1.27;;;;;;;;;;5047743;28;20040;-86
2023/12/10 06:20:38;;;;;;;9.32;1.58;;;;;;;;;;5047374;28;20085;-86
2023/12/10 06:23:04;;;;;;;10.27;1.38;;;;;;;;;;5036235;28;20129;-84
2023/12/10 06:25:29;;;;;;;6.97;1.38;;;;;;;;;;5042234;28;20037;-84
2023/12/10 06:27:58;;;;;;;5.47;1.23;;;;;;;;;;5040040;28;20041;-85
2023/12/10 06:30:24;;;;;;;5.75;1.13;;;;;;;;;;5045540;28;20030;-84
2023/12/10 06:32:49;;;;;;;9.15;1.30;;;;;;;;;;5040348;28;20033;-84
2023/12/10 06:35:15;;;;;;;4.97;0.88;;;;;;;;;;5051179;28;20041;-85
2023/12/10 06:37:41;;;;;;;8.20;1.70;;;;;;;;;;5042905;28;20044;-86
2023/12/10 06:40:07;;;;;;;5.97;1.58;;;;;;;;;;5039460;28;20404;-86
2023/12/10 06:42:33;;;;;;;5.05;1.27;;;;;;;;;;5040511;28;20128;-85
2023/12/10 06:44:59;;;;;;;8.98;1.35;;;;;;;;;;5040865;28;20029;-84
2023/12/10 06:47:25;;;;;;;5.13;1.00;;;;;;;;;;5041934;28;20032;-84
2023/12/10 06:49:50;;;;;;;6.97;1.30;;;;;;;;;;5044639;28;20041;-84
2023/12/10 06:52:17;;;;;;;6.15;1.27;;;;;;;;;;5042947;28;20032;-85
2023/12/10 06:54:43;;;;;;;7.75;1.58;;;;;;;;;;5042571;28;20010;-86
2023/12/10 06:57:08;;;;;;;7.07;1.17;;;;;;;;;;5040099;28;20518;-86
2023/12/10 06:59:34;;;;;;;9.15;1.63;;;;;;;;;;5041731;28;20045;-84
2023/12/10 07:01:59;;;;;;;7.45;1.10;;;;;;;;;;5045124;28;20399;-85
2023/12/10 07:04:25;;;;;;;4.45;1.13;;;;;;;;;;5033247;28;20037;-86
2023/12/10 07:06:50;;;;;;;7.93;1.48;;;;;;;;;;5044541;28;20040;-85
2023/12/10 07:09:16;;;;;;;8.45;1.17;;;;;;;;;;5047037;28;20029;-85
2023/12/10 07:11:41;;;;;;;5.03;1.10;;;;;;;;;;5046919;28;20033;-85
2023/12/10 07:14:07;;;;;;;8.68;1.30;;;;;;;;;;5045694;28;20581;-84
2023/12/10 07:16:32;;;;;;;8.93;1.33;;;;;;;;;;5047450;28;20489;-85
2023/12/10 07:18:58;;;;;;;8.15;1.35;;;;;;;;;;5046521;28;20037;-84
2023/12/10 07:21:24;;;;;;;7.30;1.15;;;;;;;;;;5046171;28;20041;-85
2023/12/10 07:23:49;;;;;;;8.88;1.33;;;;;;;;;;5050269;28;20037;-85
2023/12/10 07:26:23;;;;;;;5.40;1.17;;;;;;;;;;5029352;28;20033;-85
2023/12/10 07:28:51;;;;;;;9.25;1.52;;;;;;;;;;5044798;28;20104;-84
2023/12/10 07:31:17;;;;;;;8.85;1.13;;;;;;;;;;5048892;28;20031;-86
2023/12/10 07:33:42;;;;;;;5.72;1.20;;;;;;;;;;5047017;28;20029;-84
2023/12/10 07:36:09;;;;;;;8.63;1.30;;;;;;;;;;5037797;28;20033;-86
2023/12/10 07:38:34;;;;;;;11.60;1.48;;;;;;;;;;5041843;28;20051;-86
2023/12/10 07:41:00;;;;;;;5.40;1.08;;;;;;;;;;5051325;28;20407;-84
2023/12/10 07:43:25;;;;;;;7.63;1.10;;;;;;;;;;5047609;28;20506;-87
2023/12/10 07:45:51;;;;;;;7.38;1.10;;;;;;;;;;5045217;28;20040;-86
2023/12/10 07:48:18;;;;;;;11.23;1.45;;;;;;;;;;5044455;28;20055;-86
2023/12/10 07:50:44;;;;;;;7.30;1.08;;;;;;;;;;5035634;28;20057;-87
2023/12/10 07:53:10;;;;;;;9.63;1.45;;;;;;;;;;5043053;28;20032;-86
2023/12/10 07:55:35;;;;;;;6.57;1.23;;;;;;;;;;5042644;28;20097;-87
2023/12/10 07:58:01;;;;;;;7.45;1.20;;;;;;;;;;5041765;28;20044;-86
2023/12/10 08:00:27;;;;;;;6.80;1.05;;;;;;;;;;5026355;28;20025;-86
2023/12/10 08:02:52;;;;;;;11.38;1.30;;;;;;;;;;5036108;28;20394;-86
2023/12/10 08:05:18;;;;;;;6.50;0.93;;;;;;;;;;5045900;28;20375;-87
2023/12/10 08:07:43;;;;;;;5.57;1.20;;;;;;;;;;5043898;28;20045;-87
2023/12/10 08:10:10;;;;;;;5.95;1.15;;;;;;;;;;5044974;28;20040;-85
2023/12/10 08:12:35;;;;;;;7.00;1.20;;;;;;;;;;5044160;28;20044;-87
2023/12/10 08:15:01;;;;;;;11.57;1.30;;;;;;;;;;5041881;28;20009;-85
2023/12/10 08:17:26;;;;;;;8.07;1.20;;;;;;;;;;5039185;28;20021;-86
2023/12/10 08:19:52;;;;;;;6.57;1.38;;;;;;;;;;5039854;28;20029;-87
2023/12/10 08:22:17;;;;;;;9.88;1.23;;;;;;;;;;5042351;28;20033;-88
2023/12/10 08:24:43;;;;;;;5.85;1.00;;;;;;;;;;5047235;28;20067;-87
2023/12/10 08:27:09;;;;;;;8.23;1.27;;;;;;;;;;5042144;28;20084;-88
2023/12/10 08:29:35;;;;;;;6.45;1.10;;;;;;;;;;5039448;28;20026;-87
2023/12/10 08:32:01;;;;;;;7.35;1.20;;;;;;;;;;5044631;28;20033;-87
2023/12/10 08:34:26;;;;;;;10.15;1.50;;;;;;;;;;5040129;28;20013;-87
2023/12/10 08:36:52;;;;;;;8.60;1.70;;;;;;;;;;5037184;28;20063;-87
2023/12/10 08:39:18;;;;;;;6.43;1.20;;;;;;;;;;5042598;28;20045;-86
2023/12/10 08:41:43;;;;;;;6.82;1.20;;;;;;;;;;5043692;28;20033;-87
2023/12/10 08:44:09;;;;;;;5.55;1.23;;;;;;;;;;5041460;28;20013;-88
2023/12/10 08:46:34;;;;;;;8.10;1.20;;;;;;;;;;5045555;28;20041;-86
2023/12/10 08:49:00;;;;;;;7.20;1.27;;;;;;;;;;5042231;28;20063;-88
2023/12/10 08:51:25;;;;;;;6.97;1.33;;;;;;;;;;5021045;28;20542;-90
2023/12/10 08:53:51;;;;;;;6.00;1.30;;;;;;;;;;5042912;28;20072;-87
2023/12/10 08:56:20;;;;;;;6.57;1.30;;;;;;;;;;5047056;28;20041;-87
2023/12/10 08:58:46;;;;;;;10.48;1.38;;;;;;;;;;5026691;28;20053;-87
2023/12/10 09:01:12;;;;;;;6.25;1.15;;;;;;;;;;5039521;28;20037;-88
2023/12/10 09:03:42;;;;;;;6.93;1.20;;;;;;;;;;5042826;28;20044;-87
2023/12/10 09:06:08;;;;;;;7.93;1.30;;;;;;;;;;5045372;28;20033;-88
2023/12/10 09:08:34;;;;;;;7.25;1.00;;;;;;;;;;5041978;28;20041;-88
2023/12/10 09:11:03;;;;;;;7.70;1.33;;;;;;;;;;5044293;28;20055;-88
2023/12/10 09:13:30;;;;;;;10.02;1.60;;;;;;;;;;5043180;28;20401;-88
2023/12/10 09:15:56;;;;;;;7.35;1.50;;;;;;;;;;5044023;28;20033;-88
2023/12/10 09:18:21;;;;;;;8.13;1.40;;;;;;;;;;5041748;28;20037;-89
2023/12/10 09:20:47;;;;;;;7.88;1.50;;;;;;;;;;5043169;28;20048;-88
2023/12/10 09:23:12;;;;;;;5.03;1.10;;;;;;;;;;5045460;28;20041;-88
2023/12/10 09:25:38;;;;;;;9.90;1.63;;;;;;;;;;5049004;28;20059;-87
2023/12/10 09:28:03;;;;;;;6.05;1.50;;;;;;;;;;5053968;28;20029;-87
2023/12/10 09:30:29;;;;;;;7.00;1.10;;;;;;;;;;5049191;28;20036;-87
2023/12/10 09:32:54;;;;;;;8.50;1.40;;;;;;;;;;5045424;28;20025;-87
2023/12/10 09:35:20;;;;;;;7.22;1.10;;;;;;;;;;5047290;28;20072;-87
2023/12/10 09:37:45;;;;;;;7.30;1.58;;;;;;;;;;5060875;28;20041;-88
2023/12/10 09:40:11;;;;;;;3.80;0.82;;;;;;;;;;5047003;28;20033;-88
2023/12/10 09:42:36;;;;;;;6.63;1.10;;;;;;;;;;5037395;28;20500;-89
2023/12/10 09:45:02;;;;;;;8.65;1.48;;;;;;;;;;5044977;28;20040;-87
2023/12/10 09:47:29;;;;;;;5.50;1.20;;;;;;;;;;5047857;28;20036;-87
2023/12/10 09:49:58;;;;;;;7.82;1.50;;;;;;;;;;5044681;28;20471;-87
2023/12/10 09:52:24;;;;;;;9.82;1.58;;;;;;;;;;5040418;28;20057;-87
2023/12/10 09:54:52;;;;;;;7.57;1.88;;;;;;;;;;5045384;28;20364;-88
2023/12/10 09:57:19;;;;;;;5.57;1.08;;;;;;;;;;5043419;28;20059;-88
2023/12/10 09:59:44;;;;;;;7.32;1.33;;;;;;;;;;5045055;28;20076;-88
2023/12/10 10:02:10;;;;;;;4.50;1.02;;;;;;;;;;5044125;28;20043;-87
2023/12/10 10:04:39;;;;;;;6.45;1.20;;;;;;;;;;5039832;28;20037;-82
2023/12/10 10:07:06;;;;;;;9.48;1.30;;;;;;;;;;5038023;28;20035;-84
2023/12/10 10:09:35;;;;;;;7.85;1.15;;;;;;;;;;5044700;28;20041;-82
2023/12/10 10:12:01;;;;;;;6.05;1.15;;;;;;;;;;5041932;28;20041;-85
2023/12/10 10:14:26;;;;;;;7.30;1.48;;;;;;;;;;5037237;28;20033;-85
2023/12/10 10:16:52;;;;;;;5.15;1.00;;;;;;;;;;5044661;28;20037;-86
2023/12/10 10:19:17;;;;;;;7.80;1.65;;;;;;;;;;5038586;28;20029;-85
2023/12/10 10:21:44;;;;;;;5.78;1.10;;;;;;;;;;5040701;28;20096;-86
2023/12/10 10:24:10;;;;;;;7.28;1.15;;;;;;;;;;5034784;28;20030;-86
2023/12/10 10:26:36;;;;;;;5.80;1.27;;;;;;;;;;5039882;28;20463;-85
2023/12/10 10:29:07;;;;;;;8.27;1.90;;;;;;;;;;5040399;28;20033;-85
2023/12/10 10:31:33;;;;;;;9.52;1.48;;;;;;;;;;5042259;28;20055;-85
2023/12/10 10:34:02;;;;;;;5.78;1.52;;;;;;;;;;5044248;28;20017;-85
2023/12/10 10:36:28;;;;;;;6.15;1.50;;;;;;;;;;5033592;28;20534;-85
2023/12/10 10:38:54;;;;;;;9.00;1.40;;;;;;;;;;5035313;28;20013;-85
2023/12/10 10:41:20;;;;;;;7.50;1.52;;;;;;;;;;5038489;28;20034;-86
2023/12/10 10:43:45;;;;;;;6.55;1.40;;;;;;;;;;5039301;28;20029;-86
2023/12/10 10:46:11;;;;;;;5.70;1.25;;;;;;;;;;5033951;28;20113;-83
2023/12/10 10:48:39;;;;;;;6.60;1.45;;;;;;;;;;5035302;28;20069;-85
2023/12/10 10:51:06;;;;;;;7.10;1.20;;;;;;;;;;5043560;28;20036;-86
2023/12/10 10:53:35;;;;;;;7.90;1.48;;;;;;;;;;5044774;28;20037;-84
2023/12/10 10:56:03;;;;;;;5.53;1.40;;;;;;;;;;5037993;28;20116;-86
2023/12/10 10:58:29;;;;;;;9.20;1.20;;;;;;;;;;5043497;28;20043;-85
2023/12/10 11:00:58;;;;;;;7.72;1.48;;;;;;;;;;5021343;28;20537;-86
2023/12/10 11:03:28;;;;;;;8.23;1.50;;;;;;;;;;5040108;28;20029;-85
2023/12/10 11:06:15;;;;;;;9.85;1.38;;;;;;;;;;5034317;28;20063;-85
2023/12/10 11:08:55;;;;;;;6.60;1.38;;;;;;;;;;5042722;28;20042;-86
2023/12/10 11:11:21;;;;;;;7.93;1.30;;;;;;;;;;5041912;28;20033;-86
2023/12/10 11:13:47;;;;;;;7.40;1.67;;;;;;;;;;5043412;28;20376;-85
2023/12/10 11:16:13;;;;;;;10.45;2.45;;;;;;;;;;5040822;28;20041;-86
2023/12/10 11:18:50;;;;;;;5.13;1.20;;;;;;;;;;5040404;28;20041;-86
2023/12/10 11:21:16;;;;;;;8.05;1.95;;;;;;;;;;5025404;28;20052;-86
2023/12/10 11:23:41;;;;;;;6.85;1.65;;;;;;;;;;5036799;28;20033;-85
2023/12/10 11:26:07;;;;;;;8.43;1.17;;;;;;;;;;5036417;28;20086;-85
2023/12/10 11:28:32;;;;;;;6.45;1.30;;;;;;;;;;5037916;28;20053;-87
2023/12/10 11:30:58;;;;;;;7.53;1.55;;;;;;;;;;5039509;28;20029;-86
2023/12/10 11:33:23;;;;;;;6.38;1.45;;;;;;;;;;5040015;28;20088;-85
2023/12/10 11:35:49;;;;;;;5.82;1.42;;;;;;;;;;5041655;28;20087;-85
2023/12/10 11:38:14;;;;;;;7.13;1.33;;;;;;;;;;5036164;28;20060;-85
2023/12/10 11:40:41;;;;;;;5.75;1.25;;;;;;;;;;5037865;28;20057;-84
2023/12/10 11:43:10;;;;;;;6.32;1.27;;;;;;;;;;5038501;28;20561;-84
2023/12/10 11:45:36;;;;;;;5.32;1.30;;;;;;;;;;5031905;28;20030;-85
2023/12/10 11:48:03;;;;;;;5.80;1.20;;;;;;;;;;5031525;28;20021;-85
2023/12/10 11:50:31;;;;;;;5.22;1.10;;;;;;;;;;5037851;28;20050;-86
2023/12/10 11:52:56;;;;;;;4.25;1.05;;;;;;;;;;5034064;28;20040;-86
2023/12/10 11:55:22;;;;;;;4.95;1.38;;;;;;;;;;5038333;28;20038;-85
2023/12/10 11:57:48;;;;;;;8.10;1.35;;;;;;;;;;5042291;28;20391;-86
2023/12/10 12:00:14;;;;;;;5.35;1.10;;;;;;;;;;5037276;28;20045;-86
2023/12/10 12:02:41;;;;;;;5.70;1.20;;;;;;;;;;5043879;28;20093;-86
2023/12/10 12:05:09;;;;;;;3.80;0.95;;;;;;;;;;5030474;28;20699;-87
2023/12/10 12:07:36;;;;;;;2.95;0.90;;;;;;;;;;5035276;28;20054;-86
2023/12/10 12:10:01;;;;;;;3.10;1.02;;;;;;;;;;5038338;28;20041;-86
2023/12/10 12:12:27;;;;;;;7.60;1.02;;;;;;;;;;5036956;28;20057;-86
2023/12/10 12:14:53;;;;;;;5.68;1.10;;;;;;;;;;5043260;28;20028;-86
2023/12/10 12:17:20;;;;;;;4.35;1.10;;;;;;;;;;5044364;28;20034;-86
2023/12/10 12:19:46;;;;;;;4.50;0.85;;;;;;;;;;5044407;28;20064;-85
2023/12/10 12:22:11;;;;;;;4.78;1.02;;;;;;;;;;5037195;28;20041;-86
2023/12/10 12:24:43;;;;;;;7.53;1.35;;;;;;;;;;5039539;28;20050;-87
2023/12/10 12:27:10;;;;;;;4.32;1.08;;;;;;;;;;5039108;28;20035;-85
2023/12/10 12:29:36;;;;;;;3.70;1.00;;;;;;;;;;5030555;28;20050;-86
2023/12/10 12:32:03;;;;;;;5.57;1.10;;;;;;;;;;5036564;28;20037;-86
2023/12/10 12:34:29;;;;;;;4.78;1.00;;;;;;;;;;5041162;28;20033;-85
2023/12/10 12:36:54;;;;;;;2.90;0.90;;;;;;;;;;5043570;28;20044;-84
2023/12/10 12:39:20;;;;;;;6.10;0.80;;;;;;;;;;5043343;28;20033;-85
2023/12/10 12:41:47;;;;;;;4.10;1.17;;;;;;;;;;5037643;28;20025;-85
2023/12/10 12:44:13;;;;;;;4.10;0.90;;;;;;;;;;5042328;28;20040;-85
2023/12/10 12:46:40;;;;;;;5.55;0.75;;;;;;;;;;5034757;28;20040;-86
2023/12/10 12:49:08;;;;;;;4.13;1.00;;;;;;;;;;5039685;28;20749;-88
2023/12/10 12:51:35;;;;;;;3.08;0.90;;;;;;;;;;5017499;28;20027;-85
2023/12/10 12:54:01;;;;;;;2.85;0.80;;;;;;;;;;5036969;28;20483;-84
2023/12/10 12:56:26;;;;;;;2.17;0.70;;;;;;;;;;5038279;28;20039;-85
2023/12/10 12:58:53;;;;;;;4.00;0.88;;;;;;;;;;5021821;28;20037;-85
2023/12/10 13:01:20;;;;;;;3.15;0.80;;;;;;;;;;5039011;28;20032;-86
2023/12/10 13:03:45;;;;;;;4.05;0.80;;;;;;;;;;5039629;28;20029;-85
2023/12/10 13:06:11;;;;;;;2.13;0.60;;;;;;;;;;5042776;28;20040;-84
2023/12/10 13:08:36;;;;;;;6.22;0.88;;;;;;;;;;5033758;28;20462;-85
2023/12/10 13:11:02;;;;;;;4.80;1.17;;;;;;;;;;5034641;28;20033;-84
2023/12/10 13:13:28;;;;;;;4.88;1.00;;;;;;;;;;5039659;28;20040;-84
2023/12/10 13:15:53;;;;;;;8.02;1.30;;;;;;;;;;5040719;28;20423;-85
2023/12/10 13:18:19;;;;;;;3.15;0.80;;;;;;;;;;5040833;28;20040;-85
2023/12/10 13:20:44;;;;;;;6.03;0.75;;;;;;;;;;5041615;28;20052;-86
2023/12/10 13:23:10;;;;;;;3.72;1.10;;;;;;;;;;5031692;28;20037;-89
2023/12/10 13:25:35;;;;;;;7.72;0.98;;;;;;;;;;5040531;28;20095;-88
2023/12/10 13:28:01;;;;;;;5.00;1.10;;;;;;;;;;5036218;28;20095;-87
2023/12/10 13:30:26;;;;;;;6.00;1.10;;;;;;;;;;5039122;28;20053;-87
2023/12/10 13:32:52;;;;;;;4.53;1.23;;;;;;;;;;5041021;28;20114;-89
2023/12/10 13:35:17;;;;;;;5.90;1.10;;;;;;;;;;5039179;28;20104;-88
2023/12/10 13:37:43;;;;;;;4.57;1.23;;;;;;;;;;5039568;28;20031;-87
2023/12/10 13:40:10;;;;;;;6.45;1.10;;;;;;;;;;5044043;28;20129;-88
2023/12/10 13:42:35;;;;;;;4.38;1.20;;;;;;;;;;5037597;28;20041;-88
2023/12/10 13:45:01;;;;;;;5.97;1.17;;;;;;;;;;5039864;28;20095;-86
2023/12/10 13:47:26;;;;;;;4.30;1.08;;;;;;;;;;5038232;28;20037;-87
2023/12/10 13:49:52;;;;;;;6.28;1.50;;;;;;;;;;5034044;28;20033;-89
2023/12/10 13:52:17;;;;;;;7.38;1.20;;;;;;;;;;5024013;28;20048;-87
2023/12/10 13:54:43;;;;;;;5.72;2.28;;;;;;;;;;5038577;28;20057;-88
2023/12/10 13:57:08;;;;;;;7.13;2.83;;;;;;;;;;5031061;28;20107;-88
2023/12/10 13:59:34;;;;;;;7.30;3.15;;;;;;;;;;5034321;28;20037;-88
2023/12/10 14:01:59;;;;;;;8.85;5.00;;;;;;;;;;5041185;28;20120;-88
2023/12/10 14:04:25;;;;;;;4.75;1.20;;;;;;;;;;5035577;28;20109;-88
2023/12/10 14:06:50;;;;;;;4.63;1.40;;;;;;;;;;5037280;28;20450;-88
2023/12/10 14:09:16;;;;;;;4.40;1.23;;;;;;;;;;5023123;28;20492;-86
2023/12/10 14:11:41;;;;;;;5.68;1.13;;;;;;;;;;5037440;28;20074;-88
2023/12/10 14:14:07;;;;;;;9.32;1.70;;;;;;;;;;5032404;28;20032;-88
2023/12/10 14:16:34;;;;;;;7.30;1.30;;;;;;;;;;5034978;28;20034;-88
2023/12/10 14:18:59;;;;;;;4.82;1.20;;;;;;;;;;5025813;28;20041;-89
2023/12/10 14:21:26;;;;;;;7.45;3.40;;;;;;;;;;5035033;28;20033;-89
2023/12/10 14:23:51;;;;;;;4.35;1.20;;;;;;;;;;5039112;28;20032;-89
2023/12/10 14:26:17;;;;;;;8.27;2.60;;;;;;;;;;5041009;28;20021;-88
2023/12/10 14:28:42;;;;;;;4.95;1.70;;;;;;;;;;5039887;28;20035;-88
2023/12/10 14:31:08;;;;;;;5.82;2.25;;;;;;;;;;5044823;28;20025;-87
2023/12/10 14:33:33;;;;;;;4.18;1.60;;;;;;;;;;5033765;28;20044;-87
2023/12/10 14:35:59;;;;;;;4.93;1.30;;;;;;;;;;5043573;28;20017;-88